fbpx

Race date: 5-Jun-2022, Sunday

Temp: High 33° | Low 20° with Humidity 68%

The original cut-off time for 50k, 8:30:00 and 25k, 4:30:00 was relaxed to 8:45:00 and 4:45:00 respectively as announced on the 4-Jun-2022, Saturday. This time relaxation is applicable only for the 2022 edition of Bison Ultra.

50k (Cut off time 8:45:00)

DistancePositionBIB NumberNameFinish timeGenderCat Pos
50k1F-042Yuvaraj Patil7:04:05Male1 / 11
50k2F-024Tapan Jyoti Swain7:37:37Male2 / 11
50k3F-028Sumit Chadha7:44:47Male3 / 11
50k4F-052Ravi Koruprolu7:52:58Male4 / 11
50k5F-057Veeraraj Urs B8:12:05Male5 / 11
50k6F-018Harinath S8:12:06Male6 / 11
50k7F-055Harminder Singh Gill8:12:40Male7 / 11
50k8F-045Sridharan Narayanan8:13:05Male8 / 11
50k9F-001Preyasee Chari8:41:56Female1 / 1
50k10F-043Dibakar Chakraborty8:44:33Male9 / 11
50k11F-015Hari Nivas8:44:39Male10 / 11
50k12F-061Sathish Kumar Kanthan8:44:57Male11 / 11
50kDNSF-023Suresh VDNSMale
50kDNSF-026Manish SatyanarayanaDNSMale
DNS : DID NOT START | DNF : DID NOT FINISH WITHIN THE CUT-OFF | CR : Course Record | WR : Womens Record

25k (Cut off time 4:45:00)

DistancePositionBIB NumberNameFinish timeGenderCat Pos
25k1T-065Srinivasan venugopal2:48:51Male1 / 36
25k2T-067Yasmin Imthias3:14:00 (WR)Female1 / 15
25k3T-041Lalu K S3:17:00Male2 / 36
25k4T-036Meera3:30:15Female2 / 15
25k5T-046Satish Movva3:30:16Male3 / 36
25k6T-020Ravi Chandar P L K3:43:30Male4 / 36
25k7T-064Madhuri palli3:44:10Female3 / 15
25k8T-062Muhammed Ashik3:48:50Male5 / 36
25k9T-029Dr. Anand Nott3:53:55Male6 / 36
25k10T-032Dr. R. Asha Rajini3:54:59Female4 / 15
25k11T-038Dharanidharan D3:55:55Male7 / 36
25k12T-030Sanal Kumar K S4:06:50Male8 / 36
25k13T-044Laxmikant K4:07:00Male9 / 36
25k14T-033Veenasri Nandakhumar4:07:50Female5 / 15
25k15T-051Anand Kubendran4:09:15Male10 / 36
25k16T-066Madhusudhana Satavalli4:09:20Male11 / 36
25k17T-011Ripan Pradhan4:12:05Male12 / 36
25k18T-054Naren Rauniyar4:17:54Male13 / 36
25k19T-012Lakshminarayanan R4:20:36Male14 / 36
25k20T-021Harinath Babu Cherukuwada4:20:40Male15 / 36
25k21T-025Chandrasekaran Pv4:21:40Male16 / 36
25k22T-003Seena Krishna4:21:50Female6 / 15
25k23T-035Gaurav Harold Pereira4:24:40Male17 / 36
25k24T-019Divya V4:25:59Female7 / 15
25k25T-058Ramasubramanian V4:26:00Male18 / 36
25k26T-008Jamshed Velayuda Rajan4:30:15Male19 / 36
25k27T-016Keerthika B4:31:55Female8 / 15
25k28T-004Kavitha4:32:20Female9 / 15
25k29T-031Dr. Vijayashree Raghavan4:34:00Female10 / 15
25k30T-049Rajaram Venkatesan4:34:09Male20 / 36
25k31T-053Parthiban Raghunathan4:34:41Male21 / 36
25k32T-063Sujatha4:35:00Female11 / 15
25k33T-010Praveen Cheppali4:37:57Male22 / 36
25k34T-005Seema4:40:26Female12 / 15
25k35T-006Deepa4:40:57Female13 / 15
25k36T-060Sathish Kumar Ramakrishnan4:41:40Male23 / 36
25k37T-034Melissa Pereira4:41:59Female14 / 15
25k38T-002Narmadha4:42:37Female15 / 15
25k39T-017Sriniwaas4:42:45Male24 / 36
25k40T-039Venkatesan N4:43:31Male25 / 36
25k41T-037Punniyakotti G4:44:00 Male26 / 36
25k42T-048Ramesh T4:47:30 (DNF)Male27 / 36
25k43T-050Janardhanan4:47:40 (DNF)Male28 / 36
25k44T-047Karunakar maddala4:47:45 (DNF)Male29 / 36
25k45T-007Dilleeswara Babu4:47:50 (DNF)Male30 / 36
25k46T-013Rizwan Noorullah5:09:10 (DNF)Male31 / 36
25k47T-027Prakash Rengamani5:12:00 (DNF)Male32 / 36
25k48T-009Venkataramanan S5:13:55 (DNF)Male33 / 36
25k49T-059Sivagnanam5:38:00 (DNF)Male34 / 36
25kDNFT-056Anand Iyer7:51:16 (DNF)Male35 / 36
25kDNFT-062Venkataraman (Venky)7:51:20 (DNF)Male36 / 36
25kDNST-014Ravivenkatesh SDNSMale
25kDNST-022Dr. MageshDNSMale
25kDNST-040Vivek R RDNSMale
DNS : DID NOT START | DNF : DID NOT FINISH WITHIN THE CUT-OFF | CR : Course Record | WR : Womens Record